sensor_id;sensor_type;location;lat;lon;timestamp;temperature;humidity
28175;SHT30;59417;44.788;10.334;2023-05-08T00:01:55;21.55;65.29
28175;SHT30;59417;44.788;10.334;2023-05-08T00:04:21;21.59;65.28
28175;SHT30;59417;44.788;10.334;2023-05-08T00:06:46;21.59;65.00
28175;SHT30;59417;44.788;10.334;2023-05-08T00:09:12;21.62;64.77
28175;SHT30;59417;44.788;10.334;2023-05-08T00:11:38;21.60;65.36
28175;SHT30;59417;44.788;10.334;2023-05-08T00:14:04;21.63;65.55
28175;SHT30;59417;44.788;10.334;2023-05-08T00:16:30;21.57;65.39
28175;SHT30;59417;44.788;10.334;2023-05-08T00:18:56;21.57;65.16
28175;SHT30;59417;44.788;10.334;2023-05-08T00:21:21;21.62;64.84
28175;SHT30;59417;44.788;10.334;2023-05-08T00:23:47;21.62;64.73
28175;SHT30;59417;44.788;10.334;2023-05-08T00:26:13;21.63;64.80
28175;SHT30;59417;44.788;10.334;2023-05-08T00:28:38;21.66;64.82
28175;SHT30;59417;44.788;10.334;2023-05-08T00:31:04;21.69;64.96
28175;SHT30;59417;44.788;10.334;2023-05-08T00:33:30;21.70;64.74
28175;SHT30;59417;44.788;10.334;2023-05-08T00:36:02;21.63;64.81
28175;SHT30;59417;44.788;10.334;2023-05-08T00:38:35;21.63;64.86
28175;SHT30;59417;44.788;10.334;2023-05-08T00:41:02;21.59;64.91
28175;SHT30;59417;44.788;10.334;2023-05-08T00:43:28;21.60;64.80
28175;SHT30;59417;44.788;10.334;2023-05-08T00:45:55;21.55;65.02
28175;SHT30;59417;44.788;10.334;2023-05-08T00:48:21;21.47;65.56
28175;SHT30;59417;44.788;10.334;2023-05-08T00:50:49;21.43;65.62
28175;SHT30;59417;44.788;10.334;2023-05-08T00:53:16;21.38;65.67
28175;SHT30;59417;44.788;10.334;2023-05-08T00:55:42;21.35;66.25
28175;SHT30;59417;44.788;10.334;2023-05-08T00:58:08;21.26;66.29
28175;SHT30;59417;44.788;10.334;2023-05-08T01:00:35;21.05;67.08
28175;SHT30;59417;44.788;10.334;2023-05-08T01:03:02;21.02;67.35
28175;SHT30;59417;44.788;10.334;2023-05-08T01:05:29;20.94;67.23
28175;SHT30;59417;44.788;10.334;2023-05-08T01:07:55;20.87;67.48
28175;SHT30;59417;44.788;10.334;2023-05-08T01:10:20;20.74;67.67
28175;SHT30;59417;44.788;10.334;2023-05-08T01:13:05;20.70;67.84
28175;SHT30;59417;44.788;10.334;2023-05-08T01:15:53;20.67;67.92
28175;SHT30;59417;44.788;10.334;2023-05-08T01:21:52;20.74;67.16
28175;SHT30;59417;44.788;10.334;2023-05-08T01:30:15;20.70;66.96
28175;SHT30;59417;44.788;10.334;2023-05-08T01:32:45;20.75;66.77
28175;SHT30;59417;44.788;10.334;2023-05-08T01:38:13;20.62;67.67
28175;SHT30;59417;44.788;10.334;2023-05-08T01:40:56;20.72;67.31
28175;SHT30;59417;44.788;10.334;2023-05-08T01:46:13;20.61;67.95
28175;SHT30;59417;44.788;10.334;2023-05-08T01:48:46;20.47;68.26
28175;SHT30;59417;44.788;10.334;2023-05-08T01:51:21;20.43;68.31
28175;SHT30;59417;44.788;10.334;2023-05-08T01:53:55;20.51;68.24
28175;SHT30;59417;44.788;10.334;2023-05-08T01:56:23;20.39;68.53
28175;SHT30;59417;44.788;10.334;2023-05-08T01:58:52;20.37;68.55
28175;SHT30;59417;44.788;10.334;2023-05-08T02:01:23;20.37;68.56
28175;SHT30;59417;44.788;10.334;2023-05-08T02:03:51;20.27;68.73
28175;SHT30;59417;44.788;10.334;2023-05-08T02:06:19;20.21;69.00
28175;SHT30;59417;44.788;10.334;2023-05-08T02:08:47;20.06;70.04
28175;SHT30;59417;44.788;10.334;2023-05-08T02:11:15;20.17;69.57
28175;SHT30;59417;44.788;10.334;2023-05-08T02:13:43;20.16;69.33
28175;SHT30;59417;44.788;10.334;2023-05-08T02:16:11;20.14;69.15
28175;SHT30;59417;44.788;10.334;2023-05-08T02:18:39;20.24;68.90
28175;SHT30;59417;44.788;10.334;2023-05-08T02:21:06;20.14;69.47
28175;SHT30;59417;44.788;10.334;2023-05-08T02:23:34;20.23;69.15
28175;SHT30;59417;44.788;10.334;2023-05-08T02:26:01;20.20;69.02
28175;SHT30;59417;44.788;10.334;2023-05-08T02:28:28;20.36;68.34
28175;SHT30;59417;44.788;10.334;2023-05-08T02:30:57;20.23;68.84
28175;SHT30;59417;44.788;10.334;2023-05-08T02:33:26;20.08;69.44
28175;SHT30;59417;44.788;10.334;2023-05-08T02:35:52;19.98;69.65
28175;SHT30;59417;44.788;10.334;2023-05-08T02:38:20;20.10;69.33
28175;SHT30;59417;44.788;10.334;2023-05-08T02:40:50;20.02;70.15
28175;SHT30;59417;44.788;10.334;2023-05-08T02:43:17;19.92;70.96
28175;SHT30;59417;44.788;10.334;2023-05-08T02:45:48;19.82;71.56
28175;SHT30;59417;44.788;10.334;2023-05-08T02:48:32;19.59;72.05
28175;SHT30;59417;44.788;10.334;2023-05-08T02:51:09;19.38;72.53
28175;SHT30;59417;44.788;10.334;2023-05-08T02:53:51;19.39;72.05
28175;SHT30;59417;44.788;10.334;2023-05-08T02:56:28;19.20;72.86
28175;SHT30;59417;44.788;10.334;2023-05-08T02:59:00;19.12;73.01
28175;SHT30;59417;44.788;10.334;2023-05-08T03:04:21;19.27;72.60
28175;SHT30;59417;44.788;10.334;2023-05-08T03:06:48;19.45;71.78
28175;SHT30;59417;44.788;10.334;2023-05-08T03:09:18;19.55;71.30
28175;SHT30;59417;44.788;10.334;2023-05-08T03:11:47;19.58;70.78
28175;SHT30;59417;44.788;10.334;2023-05-08T03:14:16;19.61;70.08
28175;SHT30;59417;44.788;10.334;2023-05-08T03:16:44;19.66;69.37
28175;SHT30;59417;44.788;10.334;2023-05-08T03:19:20;19.68;69.25
28175;SHT30;59417;44.788;10.334;2023-05-08T03:21:47;19.65;68.85
28175;SHT30;59417;44.788;10.334;2023-05-08T03:24:16;19.59;69.03
28175;SHT30;59417;44.788;10.334;2023-05-08T03:26:43;19.39;69.60
28175;SHT30;59417;44.788;10.334;2023-05-08T03:29:12;19.41;69.53
28175;SHT30;59417;44.788;10.334;2023-05-08T03:31:38;19.27;69.83
28175;SHT30;59417;44.788;10.334;2023-05-08T03:34:05;19.12;69.57
28175;SHT30;59417;44.788;10.334;2023-05-08T03:36:33;19.12;69.91
28175;SHT30;59417;44.788;10.334;2023-05-08T03:38:59;19.31;69.09
28175;SHT30;59417;44.788;10.334;2023-05-08T03:41:25;19.25;69.76
28175;SHT30;59417;44.788;10.334;2023-05-08T03:43:52;19.31;69.39
28175;SHT30;59417;44.788;10.334;2023-05-08T03:46:19;19.27;69.50
28175;SHT30;59417;44.788;10.334;2023-05-08T03:48:46;19.28;69.64
28175;SHT30;59417;44.788;10.334;2023-05-08T03:51:14;19.11;70.10
28175;SHT30;59417;44.788;10.334;2023-05-08T03:53:41;19.18;69.87
28175;SHT30;59417;44.788;10.334;2023-05-08T03:56:07;19.06;70.16
28175;SHT30;59417;44.788;10.334;2023-05-08T03:58:53;19.01;70.27
28175;SHT30;59417;44.788;10.334;2023-05-08T04:01:37;18.86;70.89
28175;SHT30;59417;44.788;10.334;2023-05-08T04:04:06;18.74;71.51
28175;SHT30;59417;44.788;10.334;2023-05-08T04:06:42;18.70;71.45
28175;SHT30;59417;44.788;10.334;2023-05-08T04:09:26;18.93;70.95
28175;SHT30;59417;44.788;10.334;2023-05-08T04:12:12;18.93;70.91
28175;SHT30;59417;44.788;10.334;2023-05-08T04:14:52;19.03;70.77
28175;SHT30;59417;44.788;10.334;2023-05-08T04:20:02;19.00;70.82
28175;SHT30;59417;44.788;10.334;2023-05-08T04:22:31;19.06;70.80
28175;SHT30;59417;44.788;10.334;2023-05-08T04:25:00;19.12;70.45
28175;SHT30;59417;44.788;10.334;2023-05-08T04:27:26;19.08;71.12
28175;SHT30;59417;44.788;10.334;2023-05-08T04:29:53;19.11;71.33
28175;SHT30;59417;44.788;10.334;2023-05-08T04:32:20;18.88;71.94
28175;SHT30;59417;44.788;10.334;2023-05-08T04:34:47;18.73;72.55
28175;SHT30;59417;44.788;10.334;2023-05-08T04:37:42;18.94;71.99
28175;SHT30;59417;44.788;10.334;2023-05-08T04:40:08;18.96;71.94
28175;SHT30;59417;44.788;10.334;2023-05-08T04:42:35;19.00;71.96
28175;SHT30;59417;44.788;10.334;2023-05-08T04:45:04;19.03;71.92
28175;SHT30;59417;44.788;10.334;2023-05-08T04:47:30;18.98;72.05
28175;SHT30;59417;44.788;10.334;2023-05-08T04:49:56;19.14;71.62
28175;SHT30;59417;44.788;10.334;2023-05-08T04:52:21;19.18;71.22
28175;SHT30;59417;44.788;10.334;2023-05-08T04:54:47;19.23;70.30
28175;SHT30;59417;44.788;10.334;2023-05-08T04:57:13;19.17;69.88
28175;SHT30;59417;44.788;10.334;2023-05-08T04:59:38;19.21;69.94
28175;SHT30;59417;44.788;10.334;2023-05-08T05:02:04;19.18;70.13
28175;SHT30;59417;44.788;10.334;2023-05-08T05:04:33;19.15;70.44
28175;SHT30;59417;44.788;10.334;2023-05-08T05:07:00;19.21;69.98
28175;SHT30;59417;44.788;10.334;2023-05-08T05:09:25;19.14;69.76
28175;SHT30;59417;44.788;10.334;2023-05-08T05:11:51;19.04;69.93
28175;SHT30;59417;44.788;10.334;2023-05-08T05:14:17;18.97;69.93
28175;SHT30;59417;44.788;10.334;2023-05-08T05:16:43;18.98;69.78
28175;SHT30;59417;44.788;10.334;2023-05-08T05:19:08;18.88;70.38
28175;SHT30;59417;44.788;10.334;2023-05-08T05:21:34;19.00;69.86
28175;SHT30;59417;44.788;10.334;2023-05-08T05:24:03;19.01;69.94
28175;SHT30;59417;44.788;10.334;2023-05-08T05:26:29;19.12;69.42
28175;SHT30;59417;44.788;10.334;2023-05-08T05:28:55;19.15;69.17
28175;SHT30;59417;44.788;10.334;2023-05-08T05:31:20;19.14;69.86
28175;SHT30;59417;44.788;10.334;2023-05-08T05:33:46;19.12;70.05
28175;SHT30;59417;44.788;10.334;2023-05-08T05:36:12;19.30;69.59
28175;SHT30;59417;44.788;10.334;2023-05-08T05:38:38;19.34;69.21
28175;SHT30;59417;44.788;10.334;2023-05-08T05:41:04;19.38;69.06
28175;SHT30;59417;44.788;10.334;2023-05-08T05:43:30;19.41;69.06
28175;SHT30;59417;44.788;10.334;2023-05-08T05:46:02;19.55;68.76
28175;SHT30;59417;44.788;10.334;2023-05-08T05:48:28;19.52;68.77
28175;SHT30;59417;44.788;10.334;2023-05-08T05:50:54;19.52;69.12
28175;SHT30;59417;44.788;10.334;2023-05-08T05:53:19;19.49;68.92
28175;SHT30;59417;44.788;10.334;2023-05-08T05:55:45;19.37;69.59
28175;SHT30;59417;44.788;10.334;2023-05-08T05:58:11;19.42;69.85
28175;SHT30;59417;44.788;10.334;2023-05-08T06:00:36;19.52;70.00
28175;SHT30;59417;44.788;10.334;2023-05-08T06:03:03;19.65;70.27
28175;SHT30;59417;44.788;10.334;2023-05-08T06:05:28;19.62;70.53
28175;SHT30;59417;44.788;10.334;2023-05-08T06:07:57;19.59;71.02
28175;SHT30;59417;44.788;10.334;2023-05-08T06:10:22;19.70;70.98
28175;SHT30;59417;44.788;10.334;2023-05-08T06:12:48;19.76;71.00
28175;SHT30;59417;44.788;10.334;2023-05-08T06:15:15;19.79;70.57
28175;SHT30;59417;44.788;10.334;2023-05-08T06:17:43;19.80;70.46
28175;SHT30;59417;44.788;10.334;2023-05-08T06:20:09;19.87;70.48
28175;SHT30;59417;44.788;10.334;2023-05-08T06:22:34;19.89;69.80
28175;SHT30;59417;44.788;10.334;2023-05-08T06:25:04;19.92;69.89
28175;SHT30;59417;44.788;10.334;2023-05-08T06:27:31;19.95;69.15
28175;SHT30;59417;44.788;10.334;2023-05-08T06:29:58;19.99;68.87
28175;SHT30;59417;44.788;10.334;2023-05-08T06:32:23;19.99;69.13
28175;SHT30;59417;44.788;10.334;2023-05-08T06:34:49;20.05;69.45
28175;SHT30;59417;44.788;10.334;2023-05-08T06:37:15;20.19;68.62
28175;SHT30;59417;44.788;10.334;2023-05-08T06:39:40;20.17;68.62
28175;SHT30;59417;44.788;10.334;2023-05-08T06:42:06;20.20;68.35
28175;SHT30;59417;44.788;10.334;2023-05-08T06:44:36;20.24;68.52
28175;SHT30;59417;44.788;10.334;2023-05-08T06:47:02;20.29;68.85
28175;SHT30;59417;44.788;10.334;2023-05-08T06:49:27;20.43;68.02
28175;SHT30;59417;44.788;10.334;2023-05-08T06:51:53;20.45;67.94
28175;SHT30;59417;44.788;10.334;2023-05-08T06:54:19;20.47;68.38
28175;SHT30;59417;44.788;10.334;2023-05-08T06:56:45;20.55;68.62
28175;SHT30;59417;44.788;10.334;2023-05-08T06:59:11;20.58;68.50
28175;SHT30;59417;44.788;10.334;2023-05-08T07:01:37;20.61;68.18
28175;SHT30;59417;44.788;10.334;2023-05-08T07:04:03;20.67;67.89
28175;SHT30;59417;44.788;10.334;2023-05-08T07:06:29;20.67;67.73
28175;SHT30;59417;44.788;10.334;2023-05-08T07:08:58;20.74;67.31
28175;SHT30;59417;44.788;10.334;2023-05-08T07:11:24;20.71;67.42
28175;SHT30;59417;44.788;10.334;2023-05-08T07:13:49;20.77;67.81
28175;SHT30;59417;44.788;10.334;2023-05-08T07:16:15;20.84;67.75
28175;SHT30;59417;44.788;10.334;2023-05-08T07:18:41;20.91;67.57
28175;SHT30;59417;44.788;10.334;2023-05-08T07:21:08;20.91;67.24
28175;SHT30;59417;44.788;10.334;2023-05-08T07:23:33;20.92;67.90
28175;SHT30;59417;44.788;10.334;2023-05-08T07:25:59;20.90;68.82
28175;SHT30;59417;44.788;10.334;2023-05-08T07:28:25;20.88;67.12
28175;SHT30;59417;44.788;10.334;2023-05-08T07:30:51;20.94;66.94
28175;SHT30;59417;44.788;10.334;2023-05-08T07:33:17;21.04;65.91
28175;SHT30;59417;44.788;10.334;2023-05-08T07:35:43;21.12;66.34
28175;SHT30;59417;44.788;10.334;2023-05-08T07:38:08;21.23;65.56
28175;SHT30;59417;44.788;10.334;2023-05-08T07:40:34;21.36;64.72
28175;SHT30;59417;44.788;10.334;2023-05-08T07:42:59;21.41;63.96
28175;SHT30;59417;44.788;10.334;2023-05-08T07:45:25;21.52;64.74
28175;SHT30;59417;44.788;10.334;2023-05-08T07:47:53;21.53;64.16
28175;SHT30;59417;44.788;10.334;2023-05-08T07:50:19;21.52;64.20
28175;SHT30;59417;44.788;10.334;2023-05-08T07:52:45;21.60;63.94
28175;SHT30;59417;44.788;10.334;2023-05-08T07:55:11;21.65;64.51
28175;SHT30;59417;44.788;10.334;2023-05-08T07:57:39;21.56;64.42
28175;SHT30;59417;44.788;10.334;2023-05-08T08:00:06;21.55;65.41
28175;SHT30;59417;44.788;10.334;2023-05-08T08:02:39;21.77;64.94
28175;SHT30;59417;44.788;10.334;2023-05-08T08:05:05;21.78;65.44
28175;SHT30;59417;44.788;10.334;2023-05-08T08:07:31;21.78;65.13
28175;SHT30;59417;44.788;10.334;2023-05-08T08:09:58;21.81;64.94
28175;SHT30;59417;44.788;10.334;2023-05-08T08:12:24;21.77;64.01
28175;SHT30;59417;44.788;10.334;2023-05-08T08:14:49;21.86;63.96
28175;SHT30;59417;44.788;10.334;2023-05-08T08:17:15;21.84;62.86
28175;SHT30;59417;44.788;10.334;2023-05-08T08:19:41;21.83;63.53
28175;SHT30;59417;44.788;10.334;2023-05-08T08:22:07;21.76;63.45
28175;SHT30;59417;44.788;10.334;2023-05-08T08:24:33;21.77;63.81
28175;SHT30;59417;44.788;10.334;2023-05-08T08:26:58;21.73;63.96
28175;SHT30;59417;44.788;10.334;2023-05-08T08:29:24;21.74;64.59
28175;SHT30;59417;44.788;10.334;2023-05-08T08:31:50;21.76;64.73
28175;SHT30;59417;44.788;10.334;2023-05-08T08:34:15;21.76;64.84
28175;SHT30;59417;44.788;10.334;2023-05-08T08:36:41;21.78;64.41
28175;SHT30;59417;44.788;10.334;2023-05-08T08:39:07;21.73;64.56
28175;SHT30;59417;44.788;10.334;2023-05-08T08:41:33;21.70;64.56
28175;SHT30;59417;44.788;10.334;2023-05-08T08:43:58;21.76;64.61
28175;SHT30;59417;44.788;10.334;2023-05-08T08:46:26;21.63;65.14
28175;SHT30;59417;44.788;10.334;2023-05-08T08:48:54;21.66;64.66
28175;SHT30;59417;44.788;10.334;2023-05-08T08:51:42;21.70;64.78
28175;SHT30;59417;44.788;10.334;2023-05-08T08:54:12;21.62;64.53
28175;SHT30;59417;44.788;10.334;2023-05-08T08:56:39;21.69;64.75
28175;SHT30;59417;44.788;10.334;2023-05-08T08:59:07;21.65;64.76
28175;SHT30;59417;44.788;10.334;2023-05-08T09:01:34;21.65;64.73
28175;SHT30;59417;44.788;10.334;2023-05-08T09:04:01;21.67;64.85
28175;SHT30;59417;44.788;10.334;2023-05-08T09:06:27;21.67;65.31
28175;SHT30;59417;44.788;10.334;2023-05-08T09:08:54;21.67;64.55
28175;SHT30;59417;44.788;10.334;2023-05-08T09:11:21;21.77;64.31
28175;SHT30;59417;44.788;10.334;2023-05-08T09:13:47;21.70;64.33
28175;SHT30;59417;44.788;10.334;2023-05-08T09:16:12;21.67;64.49
28175;SHT30;59417;44.788;10.334;2023-05-08T09:18:38;21.71;64.90
28175;SHT30;59417;44.788;10.334;2023-05-08T09:21:07;21.76;64.68
28175;SHT30;59417;44.788;10.334;2023-05-08T09:23:36;21.77;64.07
28175;SHT30;59417;44.788;10.334;2023-05-08T09:26:02;21.77;64.35
28175;SHT30;59417;44.788;10.334;2023-05-08T09:28:27;21.80;64.22
28175;SHT30;59417;44.788;10.334;2023-05-08T09:30:57;21.81;64.90
28175;SHT30;59417;44.788;10.334;2023-05-08T09:33:27;21.89;64.95
28175;SHT30;59417;44.788;10.334;2023-05-08T09:35:53;21.94;64.31
28175;SHT30;59417;44.788;10.334;2023-05-08T09:38:39;22.03;64.10
28175;SHT30;59417;44.788;10.334;2023-05-08T09:41:09;22.07;63.74
28175;SHT30;59417;44.788;10.334;2023-05-08T09:43:35;22.04;63.99
28175;SHT30;59417;44.788;10.334;2023-05-08T09:46:22;22.07;63.34
28175;SHT30;59417;44.788;10.334;2023-05-08T09:48:49;22.08;63.55
28175;SHT30;59417;44.788;10.334;2023-05-08T09:51:15;22.17;63.44
28175;SHT30;59417;44.788;10.334;2023-05-08T09:53:41;22.31;63.15
28175;SHT30;59417;44.788;10.334;2023-05-08T09:56:08;22.34;62.92
28175;SHT30;59417;44.788;10.334;2023-05-08T09:58:41;22.37;62.61
28175;SHT30;59417;44.788;10.334;2023-05-08T10:01:07;22.32;62.18
28175;SHT30;59417;44.788;10.334;2023-05-08T10:03:51;22.14;61.23
28175;SHT30;59417;44.788;10.334;2023-05-08T10:06:16;22.06;62.00
28175;SHT30;59417;44.788;10.334;2023-05-08T10:08:43;22.20;63.74
28175;SHT30;59417;44.788;10.334;2023-05-08T10:13:46;22.49;61.38
28175;SHT30;59417;44.788;10.334;2023-05-08T10:16:16;22.51;60.92
28175;SHT30;59417;44.788;10.334;2023-05-08T10:18:47;22.54;61.40
28175;SHT30;59417;44.788;10.334;2023-05-08T10:21:14;22.55;61.49
28175;SHT30;59417;44.788;10.334;2023-05-08T10:23:45;22.61;60.60
28175;SHT30;59417;44.788;10.334;2023-05-08T10:26:24;22.67;60.98
28175;SHT30;59417;44.788;10.334;2023-05-08T10:31:33;22.65;60.21
28175;SHT30;59417;44.788;10.334;2023-05-08T10:34:01;22.65;60.41
28175;SHT30;59417;44.788;10.334;2023-05-08T10:36:29;22.72;61.00
28175;SHT30;59417;44.788;10.334;2023-05-08T10:38:59;22.75;60.43
28175;SHT30;59417;44.788;10.334;2023-05-08T10:41:25;22.80;61.63
28175;SHT30;59417;44.788;10.334;2023-05-08T10:43:51;22.85;61.48
28175;SHT30;59417;44.788;10.334;2023-05-08T10:57:10;23.13;60.42
28175;SHT30;59417;44.788;10.334;2023-05-08T10:59:36;23.19;60.29
28175;SHT30;59417;44.788;10.334;2023-05-08T11:02:03;23.19;60.21
28175;SHT30;59417;44.788;10.334;2023-05-08T11:04:30;23.20;60.23
28175;SHT30;59417;44.788;10.334;2023-05-08T11:06:55;23.19;60.49
28175;SHT30;59417;44.788;10.334;2023-05-08T11:09:46;23.20;61.10
28175;SHT30;59417;44.788;10.334;2023-05-08T11:12:22;23.18;60.74
28175;SHT30;59417;44.788;10.334;2023-05-08T11:15:03;23.16;61.52
28175;SHT30;59417;44.788;10.334;2023-05-08T11:17:31;23.10;62.35
28175;SHT30;59417;44.788;10.334;2023-05-08T11:19:59;23.03;61.41
28175;SHT30;59417;44.788;10.334;2023-05-08T11:22:26;23.03;61.87
28175;SHT30;59417;44.788;10.334;2023-05-08T11:25:03;22.99;62.77
28175;SHT30;59417;44.788;10.334;2023-05-08T11:30:36;23.09;62.62
28175;SHT30;59417;44.788;10.334;2023-05-08T11:35:47;23.09;61.94
28175;SHT30;59417;44.788;10.334;2023-05-08T11:38:24;23.10;62.01
28175;SHT30;59417;44.788;10.334;2023-05-08T11:46:02;23.19;61.92
28175;SHT30;59417;44.788;10.334;2023-05-08T11:48:32;23.24;61.43
28175;SHT30;59417;44.788;10.334;2023-05-08T11:50:59;23.39;61.49
28175;SHT30;59417;44.788;10.334;2023-05-08T11:53:25;23.40;61.51
28175;SHT30;59417;44.788;10.334;2023-05-08T11:55:52;23.43;61.21
28175;SHT30;59417;44.788;10.334;2023-05-08T11:58:18;23.54;61.07
28175;SHT30;59417;44.788;10.334;2023-05-08T12:00:44;23.65;60.67
28175;SHT30;59417;44.788;10.334;2023-05-08T12:03:12;23.82;60.12
28175;SHT30;59417;44.788;10.334;2023-05-08T12:05:38;23.94;60.24
28175;SHT30;59417;44.788;10.334;2023-05-08T12:08:08;23.91;60.93
28175;SHT30;59417;44.788;10.334;2023-05-08T12:13:19;24.57;58.69
28175;SHT30;59417;44.788;10.334;2023-05-08T12:15:50;24.86;58.33
28175;SHT30;59417;44.788;10.334;2023-05-08T12:18:18;25.02;57.52
28175;SHT30;59417;44.788;10.334;2023-05-08T12:20:43;25.10;56.99
28175;SHT30;59417;44.788;10.334;2023-05-08T12:23:10;25.18;57.64
28175;SHT30;59417;44.788;10.334;2023-05-08T12:25:36;25.37;56.98
28175;SHT30;59417;44.788;10.334;2023-05-08T12:28:05;25.35;57.19
28175;SHT30;59417;44.788;10.334;2023-05-08T12:30:31;25.21;57.43
28175;SHT30;59417;44.788;10.334;2023-05-08T12:32:57;25.07;57.11
28175;SHT30;59417;44.788;10.334;2023-05-08T12:35:23;24.87;56.97
28175;SHT30;59417;44.788;10.334;2023-05-08T12:37:49;24.96;58.09
28175;SHT30;59417;44.788;10.334;2023-05-08T12:40:27;25.20;57.48
28175;SHT30;59417;44.788;10.334;2023-05-08T12:42:53;25.34;57.69
28175;SHT30;59417;44.788;10.334;2023-05-08T12:45:24;25.42;57.25
28175;SHT30;59417;44.788;10.334;2023-05-08T12:47:52;25.61;56.83
28175;SHT30;59417;44.788;10.334;2023-05-08T12:50:20;25.68;56.30
28175;SHT30;59417;44.788;10.334;2023-05-08T12:52:47;25.78;57.46
28175;SHT30;59417;44.788;10.334;2023-05-08T12:55:26;25.86;57.21
28175;SHT30;59417;44.788;10.334;2023-05-08T12:58:09;25.92;57.08
28175;SHT30;59417;44.788;10.334;2023-05-08T13:03:20;26.03;56.08
28175;SHT30;59417;44.788;10.334;2023-05-08T13:05:45;26.06;55.52
28175;SHT30;59417;44.788;10.334;2023-05-08T13:08:11;26.08;56.14
28175;SHT30;59417;44.788;10.334;2023-05-08T13:10:54;26.12;56.99
28175;SHT30;59417;44.788;10.334;2023-05-08T13:13:21;26.16;56.49
28175;SHT30;59417;44.788;10.334;2023-05-08T13:15:48;26.16;56.68
28175;SHT30;59417;44.788;10.334;2023-05-08T13:18:14;26.19;55.26
28175;SHT30;59417;44.788;10.334;2023-05-08T13:20:41;26.05;56.25
28175;SHT30;59417;44.788;10.334;2023-05-08T13:23:07;25.95;56.56
28175;SHT30;59417;44.788;10.334;2023-05-08T13:25:35;25.98;54.86
28175;SHT30;59417;44.788;10.334;2023-05-08T13:28:01;25.64;55.46
28175;SHT30;59417;44.788;10.334;2023-05-08T13:30:27;25.71;56.22
28175;SHT30;59417;44.788;10.334;2023-05-08T13:32:53;25.77;56.46
28175;SHT30;59417;44.788;10.334;2023-05-08T13:35:19;25.53;56.03
28175;SHT30;59417;44.788;10.334;2023-05-08T13:37:46;25.26;56.50
28175;SHT30;59417;44.788;10.334;2023-05-08T13:40:12;24.99;57.03
28175;SHT30;59417;44.788;10.334;2023-05-08T13:42:38;24.82;56.66
28175;SHT30;59417;44.788;10.334;2023-05-08T13:45:05;24.84;55.47
28175;SHT30;59417;44.788;10.334;2023-05-08T13:47:31;24.99;56.20
28175;SHT30;59417;44.788;10.334;2023-05-08T13:49:58;25.11;55.50
28175;SHT30;59417;44.788;10.334;2023-05-08T13:52:24;25.30;56.38
28175;SHT30;59417;44.788;10.334;2023-05-08T13:54:50;25.28;55.47
28175;SHT30;59417;44.788;10.334;2023-05-08T13:57:16;25.23;56.50
28175;SHT30;59417;44.788;10.334;2023-05-08T13:59:41;25.30;56.49
28175;SHT30;59417;44.788;10.334;2023-05-08T14:02:07;25.18;56.18
28175;SHT30;59417;44.788;10.334;2023-05-08T14:04:33;25.08;55.50
28175;SHT30;59417;44.788;10.334;2023-05-08T14:06:59;24.87;54.31
28175;SHT30;59417;44.788;10.334;2023-05-08T14:09:25;24.75;55.85
28175;SHT30;59417;44.788;10.334;2023-05-08T14:11:51;24.63;56.16
28175;SHT30;59417;44.788;10.334;2023-05-08T14:14:16;24.65;56.04
28175;SHT30;59417;44.788;10.334;2023-05-08T14:16:42;24.57;56.74
28175;SHT30;59417;44.788;10.334;2023-05-08T14:19:07;24.63;55.54
28175;SHT30;59417;44.788;10.334;2023-05-08T14:21:33;24.62;55.47
28175;SHT30;59417;44.788;10.334;2023-05-08T14:23:59;24.63;56.37
28175;SHT30;59417;44.788;10.334;2023-05-08T14:26:25;24.65;55.84
28175;SHT30;59417;44.788;10.334;2023-05-08T14:28:51;24.69;55.33
28175;SHT30;59417;44.788;10.334;2023-05-08T14:31:16;24.66;54.94
28175;SHT30;59417;44.788;10.334;2023-05-08T14:33:42;24.69;55.13
28175;SHT30;59417;44.788;10.334;2023-05-08T14:36:08;24.62;55.43
28175;SHT30;59417;44.788;10.334;2023-05-08T14:38:34;24.57;55.95
28175;SHT30;59417;44.788;10.334;2023-05-08T14:40:59;24.56;55.95
28175;SHT30;59417;44.788;10.334;2023-05-08T14:43:25;24.60;56.06
28175;SHT30;59417;44.788;10.334;2023-05-08T14:45:51;24.53;55.68
28175;SHT30;59417;44.788;10.334;2023-05-08T14:48:17;24.43;56.44
28175;SHT30;59417;44.788;10.334;2023-05-08T14:50:42;24.31;55.74
28175;SHT30;59417;44.788;10.334;2023-05-08T14:53:08;24.28;56.42
28175;SHT30;59417;44.788;10.334;2023-05-08T14:55:33;24.35;56.74
28175;SHT30;59417;44.788;10.334;2023-05-08T14:57:59;24.46;56.70
28175;SHT30;59417;44.788;10.334;2023-05-08T15:00:25;24.43;56.98
28175;SHT30;59417;44.788;10.334;2023-05-08T15:02:51;24.43;57.51
28175;SHT30;59417;44.788;10.334;2023-05-08T15:05:16;24.48;58.12
28175;SHT30;59417;44.788;10.334;2023-05-08T15:07:42;24.49;57.22
28175;SHT30;59417;44.788;10.334;2023-05-08T15:10:08;24.48;56.78
28175;SHT30;59417;44.788;10.334;2023-05-08T15:12:33;24.46;56.90
28175;SHT30;59417;44.788;10.334;2023-05-08T15:14:59;24.52;57.58
28175;SHT30;59417;44.788;10.334;2023-05-08T15:17:25;24.51;57.58
28175;SHT30;59417;44.788;10.334;2023-05-08T15:19:50;24.49;57.59
28175;SHT30;59417;44.788;10.334;2023-05-08T15:22:16;24.52;58.16
28175;SHT30;59417;44.788;10.334;2023-05-08T15:24:42;24.67;57.46
28175;SHT30;59417;44.788;10.334;2023-05-08T15:27:07;24.67;57.17
28175;SHT30;59417;44.788;10.334;2023-05-08T15:29:35;24.69;57.29
28175;SHT30;59417;44.788;10.334;2023-05-08T15:32:01;24.69;57.13
28175;SHT30;59417;44.788;10.334;2023-05-08T15:34:26;24.77;57.05
28175;SHT30;59417;44.788;10.334;2023-05-08T15:36:52;24.86;56.05
28175;SHT30;59417;44.788;10.334;2023-05-08T15:39:18;24.90;56.02
28175;SHT30;59417;44.788;10.334;2023-05-08T15:41:43;25.00;55.58
28175;SHT30;59417;44.788;10.334;2023-05-08T15:44:09;25.00;55.74
28175;SHT30;59417;44.788;10.334;2023-05-08T15:46:35;25.03;55.31
28175;SHT30;59417;44.788;10.334;2023-05-08T15:49:01;25.10;55.51
28175;SHT30;59417;44.788;10.334;2023-05-08T15:51:26;25.16;55.27
28175;SHT30;59417;44.788;10.334;2023-05-08T15:53:53;25.06;54.79
28175;SHT30;59417;44.788;10.334;2023-05-08T15:56:20;24.96;54.85
28175;SHT30;59417;44.788;10.334;2023-05-08T15:58:52;24.88;55.41
28175;SHT30;59417;44.788;10.334;2023-05-08T16:01:18;24.76;55.65
28175;SHT30;59417;44.788;10.334;2023-05-08T16:03:44;24.57;56.50
28175;SHT30;59417;44.788;10.334;2023-05-08T16:06:09;24.35;56.98
28175;SHT30;59417;44.788;10.334;2023-05-08T16:08:35;24.25;57.20
28175;SHT30;59417;44.788;10.334;2023-05-08T16:11:01;24.26;57.88
28175;SHT30;59417;44.788;10.334;2023-05-08T16:13:27;24.25;57.07